Time;durP1;ratioP1;P1;durP2;ratioP2;P2;SDS_P1;SDS_P2;PMS_P1;PMS_P2;Temp;Humidity;BMP_temperature;BMP_pressure;BME280_temperature;BME280_humidity;BME280_pressure;Samples;Min_cycle;Max_cycle;Signal;HPM_P1;HPM_P2
2022/06/10 00:00:14;;;;;;;;;;;;;;;22.28;50.12;94347.13;2108003;28;1901;-63
2022/06/10 00:01:17;;;;;;;;;;;;;;;22.27;50.31;94350.00;2096973;28;1729;-63
2022/06/10 00:02:19;;;;;;;;;;;;;;;22.28;50.04;94352.47;2101197;28;1733;-64
2022/06/10 00:03:24;;;;;;;;;;;;;;;22.29;50.07;94345.25;2104723;28;1661;-63
2022/06/10 00:04:27;;;;;;;;;;;;;;;22.28;49.93;94356.97;2107417;28;1712;-63
2022/06/10 00:05:31;;;;;;;;;;;;;;;22.24;49.86;94351.31;2103566;28;1516;-63
2022/06/10 00:06:34;;;;;;;;;;;;;;;22.23;49.98;94349.69;2099275;28;1159;-65
2022/06/10 00:07:35;;;;;;;;;;;;;;;22.22;50.10;94342.69;2101775;28;1745;-64
2022/06/10 00:08:39;;;;;;;;;;;;;;;22.24;49.88;94342.47;2099566;28;1051;-67
2022/06/10 00:09:41;;;;;;;;;;;;;;;22.21;50.08;94342.94;2102208;28;1700;-64
2022/06/10 00:10:49;;;;;;;;;;;;;;;22.22;50.13;94348.03;2102715;28;1776;-63
2022/06/10 00:11:51;;;;;;;;;;;;;;;22.18;50.01;94346.09;2095793;28;1359;-65
2022/06/10 00:12:53;;;;;;;;;;;;;;;22.16;50.16;94342.84;2095597;28;1475;-64
2022/06/10 00:13:56;;;;;;;;;;;;;;;22.16;50.20;94345.50;2103215;28;1673;-65
2022/06/10 00:14:58;;;;;;;;;;;;;;;22.19;50.26;94345.03;2106786;28;1778;-64
2022/06/10 00:16:01;;;;;;;;;;;;;;;22.19;50.24;94347.72;2099431;28;1100;-64
2022/06/10 00:17:04;;;;;;;;;;;;;;;22.17;50.06;94350.63;2099489;28;1060;-64
2022/06/10 00:18:08;;;;;;;;;;;;;;;22.18;50.23;94351.44;2105732;28;1551;-65
2022/06/10 00:19:13;;;;;;;;;;;;;;;22.14;50.23;94345.75;2107851;28;1104;-63
2022/06/10 00:20:19;;;;;;;;;;;;;;;22.17;50.42;94357.81;2107406;28;1973;-63
2022/06/10 00:21:22;;;;;;;;;;;;;;;22.17;50.24;94360.50;2106469;28;1487;-63
2022/06/10 00:22:25;;;;;;;;;;;;;;;22.12;50.34;94359.38;2107640;28;1193;-63
2022/06/10 00:23:28;;;;;;;;;;;;;;;22.13;50.50;94352.94;2102879;28;1535;-64
2022/06/10 00:24:30;;;;;;;;;;;;;;;22.19;50.57;94345.03;2102993;28;1319;-63
2022/06/10 00:25:33;;;;;;;;;;;;;;;22.21;50.33;94357.13;2107821;28;985;-63
2022/06/10 00:26:35;;;;;;;;;;;;;;;22.24;50.67;94353.16;2107314;28;1459;-67
2022/06/10 00:27:37;;;;;;;;;;;;;;;22.25;50.57;94350.28;2098951;28;1107;-63
2022/06/10 00:28:40;;;;;;;;;;;;;;;22.25;50.48;94346.75;2099332;28;1611;-64
2022/06/10 00:29:43;;;;;;;;;;;;;;;22.29;50.46;94353.28;2107184;28;1726;-63
2022/06/10 00:30:45;;;;;;;;;;;;;;;22.29;50.64;94347.91;2107674;28;1135;-64
2022/06/10 00:31:47;;;;;;;;;;;;;;;22.28;50.65;94348.94;2107060;28;1536;-64
2022/06/10 00:32:49;;;;;;;;;;;;;;;22.29;50.90;94350.59;2105227;28;1567;-65
2022/06/10 00:33:53;;;;;;;;;;;;;;;22.28;50.83;94346.28;2107179;28;1453;-64
2022/06/10 00:34:54;;;;;;;;;;;;;;;22.27;50.94;94344.66;2100793;28;1639;-64
2022/06/10 00:35:59;;;;;;;;;;;;;;;22.28;50.77;94340.94;2100270;28;1527;-65
2022/06/10 00:37:01;;;;;;;;;;;;;;;22.24;51.07;94345.94;2102784;28;1937;-63
2022/06/10 00:38:05;;;;;;;;;;;;;;;22.20;50.90;94346.69;2100364;28;1847;-66
2022/06/10 00:39:07;;;;;;;;;;;;;;;22.20;51.12;94342.13;2103868;28;1443;-65
2022/06/10 00:40:13;;;;;;;;;;;;;;;22.18;51.32;94346.09;2107577;28;1983;-64
2022/06/10 00:41:23;;;;;;;;;;;;;;;22.16;51.25;94346.31;2107286;28;1627;-64
2022/06/10 00:42:25;;;;;;;;;;;;;;;22.13;51.39;94344.94;2106132;28;1804;-65
2022/06/10 00:43:31;;;;;;;;;;;;;;;22.16;51.16;94348.19;2099250;28;996;-64
2022/06/10 00:44:34;;;;;;;;;;;;;;;22.17;51.34;94355.16;2099355;28;1031;-65
2022/06/10 00:45:52;;;;;;;;;;;;;;;22.15;51.14;94346.56;2099212;28;1104;-64
2022/06/10 00:46:53;;;;;;;;;;;;;;;22.14;51.27;94343.09;2093569;28;1803;-65
2022/06/10 00:47:56;;;;;;;;;;;;;;;22.09;51.48;94341.13;2103510;28;1710;-69
2022/06/10 00:49:01;;;;;;;;;;;;;;;22.09;51.25;94340.31;2107676;28;1011;-65
2022/06/10 00:50:14;;;;;;;;;;;;;;;22.09;51.44;94348.34;2106159;28;1521;-64
2022/06/10 00:51:20;;;;;;;;;;;;;;;22.18;51.27;94343.41;2106730;28;1435;-64
2022/06/10 00:52:28;;;;;;;;;;;;;;;22.21;51.17;94337.59;2107252;28;1016;-67
2022/06/10 00:53:33;;;;;;;;;;;;;;;22.27;51.04;94336.63;2104973;28;1660;-65
2022/06/10 00:54:37;;;;;;;;;;;;;;;22.21;51.19;94340.25;2107374;28;1339;-64
2022/06/10 00:55:40;;;;;;;;;;;;;;;22.17;51.21;94339.94;2107587;28;1066;-65
2022/06/10 00:56:50;;;;;;;;;;;;;;;22.14;51.11;94335.06;2107626;28;1076;-66
2022/06/10 00:57:51;;;;;;;;;;;;;;;22.17;51.02;94336.44;2101219;28;1482;-68
2022/06/10 00:58:58;;;;;;;;;;;;;;;22.15;51.27;94336.69;2103212;28;1524;-65
2022/06/10 01:00:05;;;;;;;;;;;;;;;22.15;51.26;94341.22;2107543;28;1008;-66
2022/06/10 01:01:07;;;;;;;;;;;;;;;22.16;51.20;94332.94;2106550;28;1972;-65
2022/06/10 01:02:13;;;;;;;;;;;;;;;22.17;51.05;94341.78;2107333;28;1050;-65
2022/06/10 01:03:15;;;;;;;;;;;;;;;22.18;51.06;94340.75;2104942;28;1600;-65
2022/06/10 01:04:18;;;;;;;;;;;;;;;22.12;51.42;94342.50;2100377;28;1078;-65
2022/06/10 01:05:22;;;;;;;;;;;;;;;22.11;51.16;94344.38;2099752;28;1787;-65
2022/06/10 01:06:26;;;;;;;;;;;;;;;22.09;51.12;94338.44;2102071;28;1442;-65
2022/06/10 01:07:30;;;;;;;;;;;;;;;22.08;51.29;94344.84;2100049;28;1719;-65
2022/06/10 01:08:33;;;;;;;;;;;;;;;22.06;51.17;94343.47;2097602;28;1711;-65
2022/06/10 01:09:37;;;;;;;;;;;;;;;22.06;51.34;94340.78;2092910;28;1713;-65
2022/06/10 01:10:42;;;;;;;;;;;;;;;22.09;51.30;94335.78;2098875;28;1236;-65
2022/06/10 01:12:09;;;;;;;;;;;;;;;22.15;51.18;94342.03;2099011;28;1055;-64
2022/06/10 01:13:16;;;;;;;;;;;;;;;22.15;51.06;94335.88;2101507;28;1458;-64
2022/06/10 01:14:34;;;;;;;;;;;;;;;22.16;51.13;94337.47;2107352;28;1112;-64
2022/06/10 01:15:39;;;;;;;;;;;;;;;22.12;51.31;94331.81;2107150;28;1654;-64
2022/06/10 01:16:48;;;;;;;;;;;;;;;22.12;51.08;94332.63;2107378;28;1066;-64
2022/06/10 01:17:56;;;;;;;;;;;;;;;22.12;51.14;94337.97;2107277;28;1088;-64
2022/06/10 01:19:05;;;;;;;;;;;;;;;22.10;51.29;94332.03;2100822;28;1481;-69
2022/06/10 01:20:12;;;;;;;;;;;;;;;22.12;51.22;94329.13;2094232;28;1359;-64
2022/06/10 01:21:27;;;;;;;;;;;;;;;22.10;51.35;94333.91;2101143;28;1980;-64
2022/06/10 01:22:46;;;;;;;;;;;;;;;22.09;51.07;94333.09;2107115;28;1020;-64
2022/06/10 01:24:08;;;;;;;;;;;;;;;22.04;51.17;94332.97;2107033;28;1464;-65
2022/06/10 01:25:44;;;;;;;;;;;;;;;22.03;51.22;94333.22;2107344;28;1017;-65
2022/06/10 01:28:54;;;;;;;;;;;;;;;22.05;51.13;94337.31;2081393;28;1188;-65
2022/06/10 01:30:11;;;;;;;;;;;;;;;22.06;51.21;94340.78;2076815;28;1815;-65
2022/06/10 01:31:22;;;;;;;;;;;;;;;22.06;51.09;94325.53;2079105;28;1194;-66
2022/06/10 01:32:30;;;;;;;;;;;;;;;22.06;51.00;94333.56;2085333;28;1770;-65
2022/06/10 01:33:39;;;;;;;;;;;;;;;22.06;51.09;94338.91;2106330;28;1739;-65
2022/06/10 01:34:46;;;;;;;;;;;;;;;22.04;50.97;94330.31;2106048;28;1761;-65
2022/06/10 01:35:57;;;;;;;;;;;;;;;22.03;51.06;94334.03;2102937;28;1693;-65
2022/06/10 01:37:05;;;;;;;;;;;;;;;22.06;50.95;94338.09;2107275;28;948;-67
2022/06/10 01:38:09;;;;;;;;;;;;;;;22.01;51.12;94330.78;2104485;28;1553;-65
2022/06/10 01:39:19;;;;;;;;;;;;;;;22.03;50.93;94338.59;2099060;28;1718;-65
2022/06/10 01:40:24;;;;;;;;;;;;;;;22.01;51.04;94336.13;2099131;28;1623;-65
2022/06/10 01:41:30;;;;;;;;;;;;;;;22.01;51.28;94336.13;2098650;28;1902;-65
2022/06/10 01:42:37;;;;;;;;;;;;;;;22.00;51.19;94331.84;2098481;28;1277;-65
2022/06/10 01:43:42;;;;;;;;;;;;;;;22.01;51.33;94333.47;2092817;28;1155;-65
2022/06/10 01:44:48;;;;;;;;;;;;;;;21.99;51.38;94338.22;2103931;28;1404;-68
2022/06/10 01:45:56;;;;;;;;;;;;;;;22.01;51.21;94341.47;2107069;28;1111;-68
2022/06/10 01:47:03;;;;;;;;;;;;;;;22.02;51.34;94336.94;2105268;28;1737;-67
2022/06/10 01:48:07;;;;;;;;;;;;;;;22.01;51.46;94343.34;2101141;28;1721;-68
2022/06/10 01:49:12;;;;;;;;;;;;;;;22.01;51.21;94344.16;2098316;28;1024;-68
2022/06/10 01:50:19;;;;;;;;;;;;;;;22.01;51.16;94340.69;2098306;28;1128;-67
2022/06/10 01:51:23;;;;;;;;;;;;;;;22.00;51.25;94337.19;2103824;28;1550;-67
2022/06/10 01:52:33;;;;;;;;;;;;;;;21.98;51.32;94333.94;2102051;28;1565;-68
2022/06/10 01:53:39;;;;;;;;;;;;;;;21.92;51.72;94342.06;2106379;28;1507;-72
2022/06/10 01:54:45;;;;;;;;;;;;;;;21.88;51.53;94325.66;2100178;28;1304;-67
2022/06/10 01:55:48;;;;;;;;;;;;;;;21.94;51.61;94335.44;2105207;28;1559;-68
2022/06/10 01:56:53;;;;;;;;;;;;;;;21.92;51.58;94334.06;2106751;28;1070;-68
2022/06/10 01:57:57;;;;;;;;;;;;;;;21.89;51.82;94332.66;2105584;28;1497;-67
2022/06/10 01:59:03;;;;;;;;;;;;;;;21.93;51.45;94333.00;2098732;28;977;-67
2022/06/10 02:00:08;;;;;;;;;;;;;;;21.94;51.62;94331.94;2099694;28;1890;-67
2022/06/10 02:01:13;;;;;;;;;;;;;;;21.99;51.63;94332.06;2098659;28;1987;-68
2022/06/10 02:02:18;;;;;;;;;;;;;;;22.01;51.29;94329.97;2099855;28;1456;-67
2022/06/10 02:03:24;;;;;;;;;;;;;;;22.02;50.93;94332.41;2103585;28;1603;-68
2022/06/10 02:04:28;;;;;;;;;;;;;;;22.03;50.98;94331.38;2106448;28;1284;-68
2022/06/10 02:05:32;;;;;;;;;;;;;;;22.06;50.89;94340.78;2102616;28;1012;-68
2022/06/10 02:06:37;;;;;;;;;;;;;;;22.05;50.76;94336.47;2101863;28;1288;-67
2022/06/10 02:07:42;;;;;;;;;;;;;;;22.05;51.01;94342.66;2106370;28;1811;-67
2022/06/10 02:08:47;;;;;;;;;;;;;;;22.02;50.56;94337.75;2107075;28;1039;-68
2022/06/10 02:09:53;;;;;;;;;;;;;;;22.01;50.71;94343.34;2107142;28;1107;-71
2022/06/10 02:10:58;;;;;;;;;;;;;;;22.01;51.02;94346.84;2106961;28;1036;-67
2022/06/10 02:12:03;;;;;;;;;;;;;;;22.03;50.90;94342.06;2106868;28;1083;-67
2022/06/10 02:13:20;;;;;;;;;;;;;;;22.02;50.78;94348.44;2106584;28;1582;-69
2022/06/10 02:14:25;;;;;;;;;;;;;;;22.02;50.58;94343.09;2106972;28;1283;-68
2022/06/10 02:15:30;;;;;;;;;;;;;;;22.02;51.01;94348.44;2103704;28;1728;-69
2022/06/10 02:16:35;;;;;;;;;;;;;;;21.98;50.81;94347.31;2099672;28;1616;-68
2022/06/10 02:17:40;;;;;;;;;;;;;;;21.99;50.76;94340.09;2090401;28;1800;-68
2022/06/10 02:18:46;;;;;;;;;;;;;;;22.02;51.00;94350.31;2098872;28;1723;-67
2022/06/10 02:19:51;;;;;;;;;;;;;;;22.03;51.09;94358.13;2098512;28;1710;-66
2022/06/10 02:20:57;;;;;;;;;;;;;;;22.12;50.87;94354.00;2105086;28;1652;-70
2022/06/10 02:22:01;;;;;;;;;;;;;;;22.14;50.72;94343.09;2100452;28;1906;-69
2022/06/10 02:23:06;;;;;;;;;;;;;;;22.11;50.59;94352.41;2106659;28;1128;-71
2022/06/10 02:24:11;;;;;;;;;;;;;;;22.07;50.45;94350.44;2106962;28;1104;-72
2022/06/10 02:25:16;;;;;;;;;;;;;;;22.04;50.79;94346.34;2106958;28;1043;-71
2022/06/10 02:26:20;;;;;;;;;;;;;;;22.08;50.77;94350.22;2106461;28;1114;-70
2022/06/10 02:27:26;;;;;;;;;;;;;;;22.06;50.93;94357.66;2106041;28;1422;-69
2022/06/10 02:28:30;;;;;;;;;;;;;;;22.05;50.72;94352.50;2094181;28;1085;-69
2022/06/10 02:29:35;;;;;;;;;;;;;;;22.04;50.68;94354.38;2094110;28;1183;-69
2022/06/10 02:30:43;;;;;;;;;;;;;;;22.02;50.45;94348.44;2105373;28;1719;-69
2022/06/10 02:31:47;;;;;;;;;;;;;;;22.02;50.65;94359.16;2106743;28;976;-68
2022/06/10 02:32:50;;;;;;;;;;;;;;;22.00;50.87;94360.47;2106978;28;1050;-70
2022/06/10 02:33:54;;;;;;;;;;;;;;;21.97;50.95;94361.75;2106388;28;1065;-70
2022/06/10 02:34:57;;;;;;;;;;;;;;;21.94;51.31;94358.69;2105739;28;1703;-71
2022/06/10 02:36:07;;;;;;;;;;;;;;;22.10;50.91;94361.47;2106127;28;1530;-70
2022/06/10 02:37:13;;;;;;;;;;;;;;;22.19;50.48;94358.41;2106736;28;1111;-71
2022/06/10 02:38:19;;;;;;;;;;;;;;;22.25;50.59;94363.66;2106866;28;1067;-70
2022/06/10 02:39:25;;;;;;;;;;;;;;;22.29;50.19;94358.63;2106100;28;1122;-69
2022/06/10 02:40:31;;;;;;;;;;;;;;;22.32;50.01;94360.81;2100912;28;1135;-70
2022/06/10 02:41:35;;;;;;;;;;;;;;;22.35;50.09;94363.03;2099497;28;1515;-70
2022/06/10 02:42:44;;;;;;;;;;;;;;;22.37;49.96;94360.09;2098300;28;1969;-67
2022/06/10 02:43:51;;;;;;;;;;;;;;;22.38;49.87;94359.88;2099284;28;1627;-70
2022/06/10 02:44:57;;;;;;;;;;;;;;;22.40;49.93;94362.31;2106624;28;1769;-70
2022/06/10 02:46:01;;;;;;;;;;;;;;;22.37;50.34;94360.94;2106698;28;1111;-69
2022/06/10 02:47:09;;;;;;;;;;;;;;;22.35;49.93;94360.34;2106721;28;1073;-70
2022/06/10 02:48:17;;;;;;;;;;;;;;;22.34;50.19;94366.75;2106250;28;1115;-71
2022/06/10 02:49:20;;;;;;;;;;;;;;;22.37;50.26;94365.44;2106634;28;1142;-71
2022/06/10 02:50:23;;;;;;;;;;;;;;;22.40;49.83;94371.16;2105988;28;1574;-70
2022/06/10 02:51:26;;;;;;;;;;;;;;;22.42;49.90;94363.69;2091983;28;1179;-69
2022/06/10 02:52:30;;;;;;;;;;;;;;;22.43;50.14;94370.69;2096786;28;1136;-70
2022/06/10 02:53:33;;;;;;;;;;;;;;;22.39;49.82;94374.88;2098564;28;1190;-70
2022/06/10 02:54:37;;;;;;;;;;;;;;;22.39;49.89;94366.03;2098191;28;1257;-71
2022/06/10 02:55:40;;;;;;;;;;;;;;;22.39;50.13;94366.84;2100451;28;1477;-70
2022/06/10 02:56:42;;;;;;;;;;;;;;;22.39;49.92;94363.34;2106935;28;1489;-69
2022/06/10 03:01:56;;;;;;;;;;;;;;;22.35;50.13;94373.72;2106230;28;1564;-71
2022/06/10 03:03:04;;;;;;;;;;;;;;;22.30;50.10;94376.28;2099448;28;1557;-69
2022/06/10 03:04:12;;;;;;;;;;;;;;;22.00;50.51;94374.66;2108128;28;1530;-69
2022/06/10 03:05:21;;;;;;;;;;;;;;;21.72;51.31;94371.88;2108384;28;1059;-68
2022/06/10 03:06:28;;;;;;;;;;;;;;;21.44;52.09;94368.03;2108435;28;1278;-67
2022/06/10 03:07:39;;;;;;;;;;;;;;;21.31;52.47;94377.09;2108430;28;1206;-68
2022/06/10 03:08:44;;;;;;;;;;;;;;;21.17;52.74;94368.50;2108572;28;1071;-68
2022/06/10 03:09:56;;;;;;;;;;;;;;;21.12;52.82;94373.69;2107895;28;1778;-67
2022/06/10 03:11:05;;;;;;;;;;;;;;;21.13;52.85;94369.97;2108069;28;1158;-67
2022/06/10 03:12:14;;;;;;;;;;;;;;;21.10;52.87;94365.09;2108692;28;1255;-67
2022/06/10 03:13:26;;;;;;;;;;;;;;;21.23;53.01;94366.75;2108041;28;1776;-68
2022/06/10 03:14:36;;;;;;;;;;;;;;;21.35;52.18;94374.78;2101760;28;1120;-71
2022/06/10 03:15:50;;;;;;;;;;;;;;;21.29;52.27;94371.19;2107584;28;1508;-67
2022/06/10 03:16:59;;;;;;;;;;;;;;;21.14;52.62;94362.75;2107083;28;1124;-67
2022/06/10 03:18:08;;;;;;;;;;;;;;;21.08;52.59;94369.84;2108037;28;1027;-67
2022/06/10 03:19:20;;;;;;;;;;;;;;;21.08;52.67;94371.69;2108318;28;1671;-67
2022/06/10 03:20:25;;;;;;;;;;;;;;;21.10;52.74;94369.63;2108018;28;2166;-67
2022/06/10 03:21:32;;;;;;;;;;;;;;;21.01;53.04;94374.47;2108045;28;1683;-67
2022/06/10 03:22:52;;;;;;;;;;;;;;;20.93;53.35;94378.28;2108299;28;1909;-67
2022/06/10 03:24:00;;;;;;;;;;;;;;;20.87;53.44;94373.06;2108266;28;1194;-68
2022/06/10 03:25:06;;;;;;;;;;;;;;;20.82;53.50;94376.41;2103683;28;1084;-67
2022/06/10 03:26:13;;;;;;;;;;;;;;;20.82;53.51;94379.06;2103813;28;1126;-73
2022/06/10 03:27:17;;;;;;;;;;;;;;;20.76;53.55;94378.13;2107782;28;1499;-67
2022/06/10 03:28:23;;;;;;;;;;;;;;;20.74;53.62;94377.56;2108418;28;1049;-70
2022/06/10 03:29:28;;;;;;;;;;;;;;;20.76;53.67;94378.13;2108329;28;1120;-68
2022/06/10 03:30:32;;;;;;;;;;;;;;;20.80;53.82;94378.50;2106490;28;1683;-67
2022/06/10 03:31:36;;;;;;;;;;;;;;;20.80;53.71;94381.19;2108433;28;1004;-67
2022/06/10 03:32:43;;;;;;;;;;;;;;;20.76;53.68;94380.00;2107934;28;1159;-71
2022/06/10 03:33:47;;;;;;;;;;;;;;;20.86;53.69;94384.75;2108384;28;1130;-68
2022/06/10 03:34:54;;;;;;;;;;;;;;;20.82;53.56;94391.63;2107707;28;1250;-67
2022/06/10 03:36:00;;;;;;;;;;;;;;;20.73;53.61;94381.25;2108390;28;1155;-68
2022/06/10 03:37:04;;;;;;;;;;;;;;;20.73;53.62;94383.94;2094459;28;1787;-67
2022/06/10 03:38:06;;;;;;;;;;;;;;;20.71;53.80;94386.00;2099625;28;1325;-67
2022/06/10 03:39:10;;;;;;;;;;;;;;;21.20;53.10;94378.72;2099829;28;985;-68
2022/06/10 03:40:15;;;;;;;;;;;;;;;21.84;51.50;94383.34;2102208;28;1468;-66
2022/06/10 03:41:19;;;;;;;;;;;;;;;21.64;51.51;94384.53;2099992;28;1677;-72
2022/06/10 03:42:22;;;;;;;;;;;;;;;21.84;51.18;94383.34;2102858;28;1823;-67
2022/06/10 03:43:25;;;;;;;;;;;;;;;21.66;51.25;94382.44;2104533;28;1971;-67
2022/06/10 03:44:28;;;;;;;;;;;;;;;21.48;51.58;94379.88;2103290;28;1861;-66
2022/06/10 03:45:36;;;;;;;;;;;;;;;21.32;51.92;94385.94;2101803;28;1396;-67
2022/06/10 03:46:39;;;;;;;;;;;;;;;21.14;52.19;94384.97;2099596;28;1148;-67
2022/06/10 03:47:42;;;;;;;;;;;;;;;21.02;52.85;94392.13;2002165;28;11070;-67
2022/06/10 03:48:45;;;;;;;;;;;;;;;20.97;52.93;94386.66;2080107;28;1773;-67
2022/06/10 03:49:49;;;;;;;;;;;;;;;20.95;53.21;94394.09;2087126;28;1411;-67
2022/06/10 03:50:54;;;;;;;;;;;;;;;20.93;53.29;94393.50;2086021;28;1830;-67
2022/06/10 03:51:57;;;;;;;;;;;;;;;20.94;53.20;94395.13;2091100;28;1474;-69
2022/06/10 03:52:59;;;;;;;;;;;;;;;21.04;53.03;94394.59;2088401;28;1627;-67
2022/06/10 03:54:02;;;;;;;;;;;;;;;21.07;52.65;94391.44;2088329;28;1489;-70
2022/06/10 03:55:04;;;;;;;;;;;;;;;21.13;52.92;94399.34;2087643;28;1678;-66
2022/06/10 03:56:07;;;;;;;;;;;;;;;21.18;53.02;94399.50;2089170;28;1800;-67
2022/06/10 03:57:09;;;;;;;;;;;;;;;21.22;52.80;94394.50;2092756;28;1134;-73
2022/06/10 03:58:12;;;;;;;;;;;;;;;21.18;52.59;94396.84;2085322;28;1490;-66
2022/06/10 03:59:15;;;;;;;;;;;;;;;21.10;53.30;94407.81;2082359;28;1912;-66
2022/06/10 04:00:18;;;;;;;;;;;;;;;21.05;53.21;94407.69;2078220;28;1877;-68
2022/06/10 04:01:21;;;;;;;;;;;;;;;21.05;53.13;94404.22;2087326;28;1199;-66
2022/06/10 04:02:23;;;;;;;;;;;;;;;21.14;52.81;94394.81;2090642;28;1162;-68
2022/06/10 04:03:26;;;;;;;;;;;;;;;21.17;52.91;94395.22;2090523;28;1991;-67
2022/06/10 04:04:28;;;;;;;;;;;;;;;21.30;52.74;94394.19;2090280;28;1160;-66
2022/06/10 04:05:31;;;;;;;;;;;;;;;21.33;52.55;94395.56;2087657;28;1785;-67
2022/06/10 04:06:48;;;;;;;;;;;;;;;21.29;52.45;94392.56;2088918;28;1704;-66
2022/06/10 04:08:00;;;;;;;;;;;;;;;21.26;52.96;94389.53;2089393;28;1738;-67
2022/06/10 04:09:03;;;;;;;;;;;;;;;21.15;53.39;94391.94;2089470;28;1108;-66
2022/06/10 04:10:09;;;;;;;;;;;;;;;21.14;53.26;94384.13;2089124;28;1823;-69
2022/06/10 04:11:11;;;;;;;;;;;;;;;21.04;53.71;94390.03;2080404;28;1247;-66
2022/06/10 04:12:15;;;;;;;;;;;;;;;20.99;53.98;94388.06;2089719;28;1334;-66
2022/06/10 04:13:19;;;;;;;;;;;;;;;20.97;54.24;94392.84;2090479;28;1159;-66
2022/06/10 04:14:23;;;;;;;;;;;;;;;20.96;53.99;94393.03;2089213;28;1516;-66
2022/06/10 04:15:27;;;;;;;;;;;;;;;20.91;54.14;94392.91;2082169;28;1696;-67
2022/06/10 04:16:29;;;;;;;;;;;;;;;20.93;54.12;94394.31;2082620;28;1016;-67
2022/06/10 04:17:32;;;;;;;;;;;;;;;20.89;54.26;94395.03;2082436;28;1022;-64
2022/06/10 04:18:35;;;;;;;;;;;;;;;20.85;54.30;94389.28;2082308;28;1252;-65
2022/06/10 04:19:37;;;;;;;;;;;;;;;20.87;54.49;94397.91;2082847;28;1513;-65
2022/06/10 04:20:40;;;;;;;;;;;;;;;20.93;54.39;94398.84;2086990;28;1821;-66
2022/06/10 04:21:44;;;;;;;;;;;;;;;20.99;54.23;94398.72;2085987;28;1151;-66
2022/06/10 04:22:47;;;;;;;;;;;;;;;20.89;53.90;94395.81;2086330;28;1084;-65
2022/06/10 04:23:50;;;;;;;;;;;;;;;20.97;53.80;94400.00;2091235;28;1983;-66
2022/06/10 04:24:52;;;;;;;;;;;;;;;20.99;54.02;94397.94;2091047;28;1037;-65
2022/06/10 04:25:55;;;;;;;;;;;;;;;21.06;53.81;94398.66;2090460;28;1018;-65
2022/06/10 04:26:56;;;;;;;;;;;;;;;21.15;53.88;94393.78;2090482;28;1044;-65
2022/06/10 04:27:59;;;;;;;;;;;;;;;21.19;53.49;94393.09;2090511;28;1033;-66
2022/06/10 04:29:02;;;;;;;;;;;;;;;21.22;53.79;94391.84;2089549;28;1174;-67
2022/06/10 04:30:06;;;;;;;;;;;;;;;21.24;53.79;94395.09;2090562;28;1048;-66
2022/06/10 04:31:08;;;;;;;;;;;;;;;21.24;53.75;94389.75;2090232;28;1401;-66
2022/06/10 04:32:11;;;;;;;;;;;;;;;21.24;53.68;94387.09;2090340;28;1044;-66
2022/06/10 04:33:13;;;;;;;;;;;;;;;21.30;53.63;94398.72;2086086;28;1409;-66
2022/06/10 04:34:16;;;;;;;;;;;;;;;21.27;53.59;94393.84;2085727;28;1185;-67
2022/06/10 04:35:18;;;;;;;;;;;;;;;21.17;53.98;94397.88;2090186;28;1109;-66
2022/06/10 04:36:21;;;;;;;;;;;;;;;21.07;53.99;94391.44;2090287;28;1068;-66
2022/06/10 04:37:23;;;;;;;;;;;;;;;21.08;53.88;94401.88;2090283;28;1281;-66
2022/06/10 04:38:27;;;;;;;;;;;;;;;21.08;53.90;94401.88;2090435;28;1115;-66
2022/06/10 04:39:29;;;;;;;;;;;;;;;20.99;54.03;94397.94;2090252;28;1151;-67
2022/06/10 04:40:33;;;;;;;;;;;;;;;20.94;54.23;94400.47;2090969;28;1055;-66
2022/06/10 04:41:34;;;;;;;;;;;;;;;20.94;54.39;94416.47;2091352;28;1018;-67
2022/06/10 04:42:37;;;;;;;;;;;;;;;20.97;54.22;94410.69;2091274;28;1075;-67
2022/06/10 04:43:39;;;;;;;;;;;;;;;20.98;54.22;94407.00;2090462;28;1988;-71
2022/06/10 04:44:42;;;;;;;;;;;;;;;20.91;54.29;94409.75;2086889;28;1168;-68
2022/06/10 04:45:45;;;;;;;;;;;;;;;20.92;54.25;94408.72;2086300;28;1313;-67
2022/06/10 04:46:48;;;;;;;;;;;;;;;20.90;54.50;94413.47;2091364;28;1001;-66
2022/06/10 04:47:54;;;;;;;;;;;;;;;20.96;54.51;94417.09;2091205;28;1072;-66
2022/06/10 04:48:57;;;;;;;;;;;;;;;21.01;54.50;94415.34;2091013;28;1076;-67
2022/06/10 04:49:59;;;;;;;;;;;;;;;21.06;54.71;94417.34;2091198;28;1030;-67
2022/06/10 04:51:02;;;;;;;;;;;;;;;21.12;54.79;94429.78;2090815;28;1083;-67
2022/06/10 04:52:05;;;;;;;;;;;;;;;21.23;54.27;94421.00;2091035;28;1180;-67
2022/06/10 04:53:08;;;;;;;;;;;;;;;21.21;54.15;94417.75;2091064;28;1174;-67
2022/06/10 04:54:12;;;;;;;;;;;;;;;21.21;53.93;94417.75;2091053;28;1217;-67
2022/06/10 04:55:14;;;;;;;;;;;;;;;21.17;53.98;94416.59;2091046;28;1096;-68
2022/06/10 04:56:17;;;;;;;;;;;;;;;21.11;54.46;94417.44;2085713;28;1437;-66
2022/06/10 04:57:19;;;;;;;;;;;;;;;21.05;54.35;94423.72;2088774;28;1116;-67
2022/06/10 04:58:22;;;;;;;;;;;;;;;21.04;54.58;94410.59;2090564;28;1187;-66
2022/06/10 04:59:24;;;;;;;;;;;;;;;21.01;54.86;94417.22;2091077;28;1022;-67
2022/06/10 05:00:28;;;;;;;;;;;;;;;21.05;54.83;94415.69;2091213;28;1091;-68
2022/06/10 05:01:30;;;;;;;;;;;;;;;21.01;55.32;94423.38;2091173;28;1087;-66
2022/06/10 05:02:34;;;;;;;;;;;;;;;21.01;55.19;94414.53;2091203;28;1013;-66
2022/06/10 05:03:36;;;;;;;;;;;;;;;21.01;54.96;94418.03;2090937;28;1159;-67
2022/06/10 05:04:38;;;;;;;;;;;;;;;21.04;55.05;94414.09;2090913;28;1973;-67
2022/06/10 05:05:41;;;;;;;;;;;;;;;21.11;55.00;94424.66;2090801;28;1049;-67
2022/06/10 05:06:44;;;;;;;;;;;;;;;21.10;54.46;94426.53;2091148;28;1031;-66
2022/06/10 05:07:51;;;;;;;;;;;;;;;21.10;54.84;94418.50;2082066;28;1419;-66
2022/06/10 05:08:54;;;;;;;;;;;;;;;21.16;54.78;94422.13;2090648;28;1108;-67
2022/06/10 05:09:57;;;;;;;;;;;;;;;21.15;55.07;94423.97;2090713;28;1122;-67
2022/06/10 05:11:00;;;;;;;;;;;;;;;21.10;54.78;94421.19;2090838;28;1167;-69
2022/06/10 05:12:02;;;;;;;;;;;;;;;21.04;54.69;94430.13;2090806;28;1116;-66
2022/06/10 05:13:05;;;;;;;;;;;;;;;21.03;54.60;94425.81;2090464;28;1171;-66
2022/06/10 05:14:10;;;;;;;;;;;;;;;21.04;54.62;94427.44;2090626;28;1359;-67
2022/06/10 05:15:13;;;;;;;;;;;;;;;21.09;54.67;94424.09;2090894;28;1610;-67
2022/06/10 05:16:16;;;;;;;;;;;;;;;21.09;54.51;94424.91;2090981;28;1088;-67
2022/06/10 05:17:18;;;;;;;;;;;;;;;21.15;54.76;94429.31;2090979;28;1115;-72
2022/06/10 05:18:24;;;;;;;;;;;;;;;21.22;54.33;94430.06;2089366;28;1042;-66
2022/06/10 05:19:25;;;;;;;;;;;;;;;21.27;54.40;94434.72;2084496;28;1168;-67
2022/06/10 05:20:31;;;;;;;;;;;;;;;21.25;54.57;94436.78;2090857;28;1092;-66
2022/06/10 05:21:34;;;;;;;;;;;;;;;21.29;54.57;94434.50;2090784;28;1116;-67
2022/06/10 05:22:36;;;;;;;;;;;;;;;21.35;54.43;94438.91;2090800;28;1369;-67
2022/06/10 05:23:39;;;;;;;;;;;;;;;21.40;54.34;94434.50;2090862;28;854;-67
2022/06/10 05:24:40;;;;;;;;;;;;;;;21.41;54.37;94432.66;2090817;28;1991;-67
2022/06/10 05:25:45;;;;;;;;;;;;;;;21.42;54.29;94439.63;2090818;28;1120;-66
2022/06/10 05:26:47;;;;;;;;;;;;;;;21.44;54.77;94442.88;2090763;28;1534;-67
2022/06/10 05:27:49;;;;;;;;;;;;;;;21.45;54.72;94434.63;2090715;28;1037;-66
2022/06/10 05:28:52;;;;;;;;;;;;;;;21.41;54.85;94446.00;2090396;28;1052;-66
2022/06/10 05:29:54;;;;;;;;;;;;;;;21.37;54.73;94444.81;2086307;28;1112;-66
2022/06/10 05:30:57;;;;;;;;;;;;;;;21.39;54.89;94442.75;2085954;28;1079;-66
2022/06/10 05:32:00;;;;;;;;;;;;;;;21.38;54.89;94436.59;2090900;28;1021;-67
2022/06/10 05:33:03;;;;;;;;;;;;;;;21.40;54.74;94436.38;2090688;28;1096;-67
2022/06/10 05:35:26;;;;;;;;;;;;;;;21.45;54.80;94436.47;2090232;28;1183;-68
2022/06/10 05:36:28;;;;;;;;;;;;;;;21.39;55.08;94434.72;2090675;28;1120;-67
2022/06/10 05:37:31;;;;;;;;;;;;;;;21.40;55.13;94431.03;2090740;28;1147;-67
2022/06/10 05:38:32;;;;;;;;;;;;;;;21.40;55.22;94439.06;2090539;28;1167;-67
2022/06/10 05:39:35;;;;;;;;;;;;;;;21.41;55.25;94432.66;2090613;28;993;-66
2022/06/10 05:40:38;;;;;;;;;;;;;;;21.41;55.12;94438.00;2090488;28;1076;-67
2022/06/10 05:43:04;;;;;;;;;;;;;;;21.42;55.32;94436.94;2089910;28;1234;-66
2022/06/10 05:44:13;;;;;;;;;;;;;;;21.41;55.46;94438.81;2090573;28;1167;-67
2022/06/10 05:45:17;;;;;;;;;;;;;;;21.40;55.12;94437.19;2090609;28;1973;-67
2022/06/10 05:46:19;;;;;;;;;;;;;;;21.40;55.34;94442.53;2090469;28;1116;-67
2022/06/10 05:47:24;;;;;;;;;;;;;;;21.38;55.67;94443.81;2090474;28;1112;-67
2022/06/10 05:48:27;;;;;;;;;;;;;;;21.38;55.33;94443.81;2090565;28;1044;-67
2022/06/10 05:49:29;;;;;;;;;;;;;;;21.42;55.52;94450.31;2090432;28;1093;-67
2022/06/10 05:50:34;;;;;;;;;;;;;;;21.38;55.45;94433.13;2089979;28;1116;-68
2022/06/10 05:51:36;;;;;;;;;;;;;;;21.35;55.40;94444.25;2090551;28;961;-66